トルマチェヴォ空港(ノヴォシビルスク)の過去48時間の天気

トルマチェヴォ空港(ノヴォシビルスク) (TOLMACHEVO)

現在時刻: 1/26 13:10 +06 (1/26 07:10 UTC) 以下の時間は現地時間です。

過去48時間のMETAR気象情報
時間 風向 風速(m/s) 視程 気温(℃) 湿度(%) 気圧(hPa) 天気現象
26 12:30 7 10km以上 -11 72 1017 低い地吹雪
26 12:00 南南西 7 10km以上 -12 78 1017 低い地吹雪
26 11:30 南南西 7 10km以上 -12 72 1017 低い地吹雪
26 11:00 南南西 7 10km以上 -12 78 1017 低い地吹雪
26 10:30 南南西 8 10km以上 -12 78 1017
26 10:00 南南西 8 10km以上 -12 78 1016
26 09:30 南南西 7 10km以上 -12 78 1016
26 09:00 南南西 7 10km以上 -12 78 1016
26 08:30 南南西 6 10km以上 -11 72 1015
26 08:00 南南西 7 10km以上 -11 79 1015
26 07:30 南南西 7 10km以上 -11 79 1014
26 07:00 南南西 7 10km以上 -10 79 1014
26 06:30 南南西 6 10km以上 -10 85 1013
26 06:00 6 10km以上 -9 79 1013
26 05:30 5 10km以上 -9 79 1013
26 05:00 南南西 6 10km以上 -8 79 1012 弱い雪
26 04:30 5 10km以上 -9 85 1012
26 04:00 5 10km以上 -8 79 1012
26 03:30 南南西 5 10km以上 -7 79 1012
26 03:00 南南西 6 10km以上 -6 73 1012 弱い雪
26 02:30 南南西 6 10km以上 -6 79 1012
26 02:00 4 8000m -6 86 1012 弱いしゅう雪
26 01:30 南南西 5 9000m -6 86 1012 弱いしゅう雪
26 01:00 5 5000m -6 86 1012 弱いしゅう雪
26 00:30 5 4700m -6 79 1012 弱い雪
26 00:00 5 10km以上 -7 86 1012 弱い雪
25 23:30 5 10km以上 -7 79 1012
25 23:00 5 10km以上 -7 79 1012
25 22:30 3 10km以上 -7 79 1011
25 22:00 南南西 5 10km以上 -6 73 1012 低い地吹雪
25 21:30 南西 6 10km以上 -6 73 1011 低い地吹雪
25 21:00 南西 7 10km以上 -5 68 1011 低い地吹雪
25 20:30 南西 7 10km以上 -5 68 1011 低い地吹雪
25 20:00 南西 7 10km以上 -5 79 1010 低い地吹雪
25 19:30 南西 5 9000m -4 80 1010 弱いしゅう雪 低い地吹雪
25 19:00 西南西 8 10km以上 -4 80 1010 弱いしゅう雪 低い地吹雪
25 18:30 西南西 8 10km以上 -5 86 1009 弱い雪 低い地吹雪
25 18:00 西南西 9 10km以上 -4 80 1008 低い地吹雪
25 17:30 西南西 10 9000m -3 74 1007 低い地吹雪
25 17:00 南西 11 9000m -2 80 1006 弱いしゅう雪 低い地吹雪
25 16:30 南西 12 4500m -2 86 1005 弱いしゅう雪 低い地吹雪
25 16:00 南西 10 9000m -1 80 1005 低い地吹雪
25 15:30 南西 12 8000m -1 80 1004 弱いしゅう雪 低い地吹雪
25 15:00 南西 10 4400m -1 93 1003 弱いしゅう雪 低い地吹雪
25 14:30 南西 10 3600m 0 80 1002 弱い雪 低い地吹雪
25 14:00 南西 11 9000m 0 86 1001 低い地吹雪
25 13:30 南西 10 9000m 0 86 1001 弱い雪 低い地吹雪
25 13:00 南西 9 9000m 0 86 1000 弱い雪 低い地吹雪
25 12:30 南西 9 10km以上 0 86 999 弱い雪 低い地吹雪
25 12:00 南南西 8 9000m 0 86 999 弱い雪 低い地吹雪
25 11:30 南南西 9 6000m -1 93 998 弱い雪 低い地吹雪
25 11:00 南南西 9 10km以上 -1 93 998 弱い雪 低い地吹雪
25 10:30 南南西 9 10km以上 -1 93 998 弱い雪 低い地吹雪
25 10:00 9 10km以上 -1 93 998 弱い雪 低い地吹雪
25 09:30 7 3500m -2 100 998 弱い雪 低い地吹雪
25 09:00 9 2100m -2 100 998 弱いしゅう雪 低い地吹雪
25 08:30 6 1500m -2 93 998 低い地吹雪 しゅう雪
25 08:00 7 1900m -2 93 998 しゅう雪 低い地吹雪
25 07:30 8 4900m -1 74 999 弱いしゅう雪
25 07:00 南南東 6 10km以上 -1 69 999
25 06:30 南南東 6 10km以上 -1 69 1000
25 06:00 南南東 6 10km以上 -2 74 1000
25 05:30 南南東 5 10km以上 -1 69 1001
25 05:00 南南東 6 10km以上 -2 74 1001
25 04:30 5 10km以上 -1 69 1002
25 04:00 5 10km以上 -1 74 1002
25 03:30 5 10km以上 -2 86 1002
25 03:00 南南東 5 10km以上 -2 93 1003
25 02:30 南南東 5 2700m -2 93 1003 弱いしゅう雪
25 02:00 5 3100m -2 93 1004 弱いしゅう雪
25 01:30 5 7000m -1 86 1004 弱いしゅう雪
25 01:00 5 7000m -1 80 1004 弱いしゅう雪
25 00:30 5 9000m -1 86 1005 弱いしゅう雪
25 00:00 6 9000m -1 93 1005 弱いしゅう雪
24 23:30 5 5000m -1 93 1005 弱いしゅう雪
24 23:00 6 2700m 0 93 1005 弱いしゅう雪
24 22:30 5 2800m 0 93 1005 弱いしゅう雪
24 22:00 6 2300m 0 93 1006 弱いしゅう雪 低い地吹雪
24 21:30 6 3900m 0 93 1006 弱いしゅう雪 低い地吹雪
24 21:00 7 2700m -1 93 1005 弱いしゅう雪 低い地吹雪
24 20:30 南南西 7 3900m 0 93 1006 弱いしゅう雪 低い地吹雪
24 20:00 南南西 8 2900m 0 93 1006 弱いしゅう雪 低い地吹雪
24 19:30 南南西 7 4400m 0 93 1006 弱いしゅう雪 低い地吹雪
24 19:00 南南西 8 4900m 0 93 1006 弱いしゅう雪 低い地吹雪
24 18:30 南南西 8 4000m 0 93 1006 弱いしゅう雪 低い地吹雪
24 18:00 南南西 8 7000m 0 93 1006 弱いしゅう雪 低い地吹雪
24 17:30 南南西 9 9000m 0 86 1006 弱いしゅう雪 低い地吹雪
24 17:00 南南西 9 10km以上 0 86 1006 弱いしゅう雪 低い地吹雪
24 16:30 南南西 9 10km以上 0 86 1006 低い地吹雪
24 16:00 南南西 10 10km以上 0 86 1006 低い地吹雪
24 15:30 南南西 10 10km以上 0 86 1005 低い地吹雪
24 15:00 南南西 10 8000m 0 93 1006 弱い雪 低い地吹雪
24 14:30 南南西 8 4600m 0 93 1006 弱い雪 低い地吹雪
24 14:00 南南西 8 6000m 0 86 1006 弱い雪 低い地吹雪
24 13:30 南南西 9 10km以上 0 86 1006 弱い雪 低い地吹雪
UNNT 260630Z 19007MPS 9999 DRSN NSC M11/M15 Q1017 R25/820240 R16/920338 NOSIG RMK QFE753/1004
UNNT 260600Z 20007MPS 9999 DRSN NSC M12/M15 Q1017 R25/820240 R16/920338 NOSIG RMK QFE753/1004
UNNT 260530Z 20007MPS 9999 DRSN NSC M12/M16 Q1017 R25/820240 R16/920338 NOSIG RMK QFE753/1004
UNNT 260500Z 21007G12MPS 9999 DRSN NSC M12/M15 Q1017 R25/590238 R16/920338 NOSIG RMK QFE753/1004
UNNT 260430Z 21008MPS CAVOK M12/M15 Q1017 R25/590238 R16/920338 NOSIG RMK QFE752/1003
UNNT 260400Z 20008MPS CAVOK M12/M15 Q1016 R25/850343 R16/920338 NOSIG RMK QFE752/1003
UNNT 260330Z 21007MPS CAVOK M12/M15 Q1016 R25/850343 R16/920338 NOSIG RMK QFE752/1002
UNNT 260300Z 20007MPS CAVOK M12/M15 Q1016 R25/850343 R16/920338 NOSIG RMK QFE752/1002
UNNT 260230Z 20006MPS CAVOK M11/M15 Q1015 R25/850343 R16/950234 NOSIG RMK QFE751/1002
UNNT 260200Z 20007MPS CAVOK M11/M14 Q1015 R25/820142 R16/950234 NOSIG RMK QFE751/1001
UNNT 260130Z 20007MPS CAVOK M11/M14 Q1014 R25/820142 R16/950234 NOSIG RMK QFE751/1001
UNNT 260100Z 20007MPS 9999 FEW033 M10/M13 Q1014 R25/820142 R16/950234 NOSIG RMK QFE750/1000
UNNT 260030Z 20006MPS 9999 SCT033 M10/M12 Q1013 R25/820142 R16/950234 NOSIG RMK QFE750/1000
UNNT 260000Z 19006MPS 9999 BKN033 M09/M12 Q1013 R25/820142 R16/950234 NOSIG RMK QFE750/1000
UNNT 252330Z 19005MPS 9999 BKN033 M09/M12 Q1013 R25/820142 R16/950234 NOSIG RMK QFE750/1000
UNNT 252300Z 20006MPS 9999 -SN BKN033 M08/M11 Q1012 R25/820142 R16/950234 NOSIG RMK QFE749/0999
UNNT 252230Z 19005MPS CAVOK M09/M11 Q1012 R25/820142 R16/950234 NOSIG RMK QFE749/0999
UNNT 252200Z 18005MPS CAVOK M08/M11 Q1012 R25/820142 R16/950234 NOSIG RMK QFE749/0999
UNNT 252130Z 20005MPS 9999 OVC020 M07/M10 Q1012 R25/820142 R16/950234 NOSIG RMK QFE749/0999
UNNT 252100Z 21006MPS 9999 -SN OVC022 M06/M10 Q1012 R25/820142 R16/950234 NOSIG RMK QFE749/0999
UNNT 252030Z 20006MPS 9999 OVC046 M06/M09 Q1012 R25/820142 R16/950234 NOSIG RMK QFE749/0998
UNNT 252000Z 19004MPS 8000 -SHSN OVC030CB M06/M08 Q1012 R25/820142 R16/950234 NOSIG RMK QFE749/0998
UNNT 251930Z 20005MPS 9000 -SHSN OVC043CB M06/M08 Q1012 R25/820142 R16/950234 NOSIG RMK QFE749/0998
UNNT 251900Z 19005MPS 5000 -SHSN OVC030CB M06/M08 Q1012 R25/820142 R16/950234 NOSIG RMK QFE749/0998
UNNT 251830Z 19005MPS 4700 -SN OVC040 M06/M09 Q1012 R25/820142 R16/950234 NOSIG RMK QFE749/0998
UNNT 251800Z 19005MPS 9999 -SN NSC M07/M09 Q1012 R25/820142 R16/950234 NOSIG RMK QFE749/0998
UNNT 251730Z 18005MPS 9999 OVC020 M07/M10 Q1012 R25/820142 R16/950234 NOSIG RMK QFE749/0998
UNNT 251700Z 18005MPS CAVOK M07/M10 Q1012 R25/820142 R16/950234 NOSIG RMK QFE749/0998
UNNT 251630Z 18003MPS 9999 SCT034 M07/M10 Q1011 R25/820142 R16/490332 NOSIG RMK QFE749/0998
UNNT 251600Z 21005MPS 9999 DRSN SCT025CB M06/M10 Q1012 R25/820142 R16/490332 NOSIG RMK QFE749/0998
UNNT 251530Z 22006MPS 9999 DRSN BKN025CB M06/M10 Q1011 R25/820142 R16/490332 NOSIG RMK QFE749/0998
UNNT 251500Z 23007MPS 9999 DRSN BKN025CB M05/M10 Q1011 R25/820142 R16/490332 NOSIG RMK QFE748/0998
UNNT 251430Z 23007MPS 9999 DRSN BKN025CB M05/M10 Q1011 R25/820142 R16/490332 NOSIG RMK QFE748/0998
UNNT 251400Z 23007MPS 9999 DRSN BKN032CB M05/M08 Q1010 R25/820142 R16/590332 NOSIG RMK QFE748/0997
UNNT 251330Z 23005MPS 9000 -SHSN DRSN OVC021CB M04/M07 Q1010 R25/850137 R16/590332 NOSIG RMK QFE748/0997
UNNT 251300Z 24008MPS 9999 -SHSN DRSN OVC029CB M04/M07 Q1010 R25/850137 R16/590332 NOSIG RMK QFE747/0997
UNNT 251230Z 25008MPS 9999 -SN DRSN BKN026 M05/M07 Q1009 R25/850137 R16/590332 NOSIG RMK QFE747/0996
UNNT 251200Z 24009MPS 9999 DRSN BKN026CB M04/M07 Q1008 R25/850137 R16/590332 NOSIG RMK QFE746/0995
UNNT 251130Z 25010MPS 9000 DRSN BKN026CB M03/M07 Q1007 R25/850137 R16/590332 NOSIG RMK QFE746/0994
UNNT 251100Z 23011MPS 9000 -SHSN DRSN BKN026CB M02/M05 Q1006 R25/590238 R16/590332 NOSIG RMK QFE745/0993
UNNT 251030Z 23012MPS 4500 -SHSN DRSN BKN018CB M02/M04 Q1005 R25/590238 R16/590332 NOSIG RMK QFE744/0992
UNNT 251000Z 23010MPS 9000 DRSN BKN046CB M01/M04 Q1005 R25/590238 R16/590332 NOSIG RMK QFE744/0992
UNNT 250930Z 23012MPS 8000 -SHSN DRSN FEW011 BKN036CB M01/M04 Q1004 R25/590238 R16/590332 NOSIG RMK QFE743/0991
UNNT 250900Z 23010MPS 4400 -SHSN DRSN SCT008 BKN036CB M01/M02 Q1003 R25/590238 R16/590332 NOSIG RMK QFE742/0990
UNNT 250830Z 23010G15MPS 3600 -SN DRSN OVC020 M00/M03 Q1002 R25/590238 R16/590332 NOSIG RMK QFE742/0989
UNNT 250800Z 23011MPS 9000 DRSN BKN028 00/M02 Q1001 R25/590238 R16/420334 NOSIG RMK QFE741/0988
UNNT 250730Z 22010MPS 9000 -SN DRSN BKN014 OVC033 00/M02 Q1001 R25/490238 R16/420334 NOSIG RMK QFE740/0987
UNNT 250700Z 22009MPS 9000 -SN DRSN BKN014 OVC033 M00/M02 Q1000 WS R25 R25/490238 R16/420334 NOSIG RMK QFE740/0987
UNNT 250630Z 22009MPS 9999 -SN DRSN BKN014 OVC033 M00/M02 Q0999 WS R25 R25/490238 R16/420334 NOSIG RMK QFE740/0986
UNNT 250600Z 21008MPS 9000 -SN DRSN SCT014 OVC033 M00/M02 Q0999 R25/490238 R16/420334 NOSIG RMK QFE739/0986
UNNT 250530Z 21009MPS 6000 -SN DRSN OVC014 M01/M02 Q0998 R16/420334 R25/490535 NOSIG RMK QFE739/0986
UNNT 250500Z 20009MPS 9999 -SN DRSN OVC014 M01/M02 Q0998 R16/420334 R25/490535 NOSIG RMK QFE739/0985
UNNT 250430Z 20009MPS 9999 -SN DRSN OVC013 M01/M02 Q0998 R16/420334 R25/490535 NOSIG RMK QFE739/0985
UNNT 250400Z 19009MPS 9999 -SN DRSN BKN011 OVC023 M01/M02 Q0998 R16/420334 R25/490535 NOSIG RMK QFE738/0985
UNNT 250330Z 18007MPS 3500 -SN DRSN SCT008 OVC023 M02/M02 Q0998 R16/420334 R25/490535 NOSIG RMK QFE738/0985
UNNT 250300Z 17009MPS 2100 -SHSN DRSN SCT008 OVC018CB M02/M02 Q0998 R16/420334 R25/590237 NOSIG RMK QFE738/0985
UNNT 250230Z 17006MPS 1500 1300E R25/1500D SHSN DRSN SCT008 OVC018CB M02/M03 Q0998 R25/590237 R16/590532 NOSIG RMK QFE739/0985
UNNT 250200Z 17007MPS 1900 R25/1700N SHSN DRSN OVC009CB M02/M03 Q0998 R25/590237 R16/590532 NOSIG RMK QFE739/0985
UNNT 250130Z 18008MPS 4900 -SHSN OVC027CB M01/M05 Q0999 R25/590237 R16/590532 NOSIG RMK QFE739/0986
UNNT 250100Z 16006MPS 9999 SCT026 M01/M06 Q0999 R25/590237 R16/590532 NOSIG RMK QFE740/0986
UNNT 250030Z 16006MPS 9999 SCT031 M01/M06 Q1000 R25/590237 R16/590532 NOSIG RMK QFE740/0987
UNNT 250000Z 16006MPS 9999 SCT031 M02/M06 Q1000 R25/590237 R16/590532 NOSIG RMK QFE740/0987
UNNT 242330Z 16005MPS 9999 SCT031 M01/M06 Q1001 R25/590237 R16/820235 NOSIG RMK QFE741/0988
UNNT 242300Z 16006MPS 9999 SCT031 M02/M06 Q1001 R25/590237 R16/820235 NOSIG RMK QFE741/0988
UNNT 242230Z 17005MPS 9999 SCT029CB M01/M06 Q1002 R25/590237 R16/820235 NOSIG RMK QFE741/0989
UNNT 242200Z 17005MPS 9999 SCT029CB M01/M05 Q1002 R25/590237 R16/820235 NOSIG RMK QFE742/0989
UNNT 242130Z 17005MPS 9999 BKN029CB M02/M04 Q1002 R25/590237 R16/820235 NOSIG RMK QFE742/0989
UNNT 242100Z 16005MPS 9999 BKN029CB M02/M03 Q1003 R25/590237 R16/820235 NOSIG RMK QFE742/0990
UNNT 242030Z 16005MPS 2700 -SHSN OVC029CB M02/M03 Q1003 R25/590237 R16/820235 NOSIG RMK QFE743/0990
UNNT 242000Z 17005MPS 3100 -SHSN OVC033CB M02/M03 Q1004 R25/590237 R16/820235 NOSIG RMK QFE743/0991
UNNT 241930Z 17005MPS 7000 -SHSN OVC036CB M01/M03 Q1004 R25/590237 R16/820235 NOSIG RMK QFE743/0991
UNNT 241900Z 18005MPS 7000 -SHSN OVC030CB M01/M04 Q1004 R25/590237 R16/820235 NOSIG RMK QFE743/0991
UNNT 241830Z 17005MPS 9000 -SHSN OVC034CB M01/M03 Q1005 R25/590237 R16/820235 NOSIG RMK QFE744/0992
UNNT 241800Z 18006MPS 9000 3300N -SHSN SCT010 OVC036CB M01/M02 Q1005 R25/590237 R16/820235 NOSIG RMK QFE744/0992
UNNT 241730Z 18005MPS 5000 -SHSN SCT007 OVC026CB M01/M02 Q1005 R25/590237 R16/820235 NOSIG RMK QFE744/0992
UNNT 241700Z 18006MPS 2700 -SHSN SCT007 OVC029CB M00/M01 Q1005 R25/590237 R16/820235 NOSIG RMK QFE744/0992
UNNT 241630Z 18005MPS 2800 -SHSN SCT008 OVC029CB M00/M01 Q1005 R25/590237 R16/820235 NOSIG RMK QFE744/0992
UNNT 241600Z 19006MPS 2300 -SHSN DRSN SCT008 OVC023CB M00/M01 Q1006 R25/590237 R16/820235 NOSIG RMK QFE744/0992
UNNT 241530Z 19006MPS 3900 -SHSN DRSN SCT010 OVC023CB M00/M01 Q1006 R25/590237 R16/820235 NOSIG RMK QFE744/0992
UNNT 241500Z 19007MPS 2700 -SHSN DRSN SCT010 OVC023CB M01/M02 Q1005 R25/590237 R16/820235 NOSIG RMK QFE744/0992
UNNT 241430Z 20007MPS 3900 -SHSN DRSN SCT010 OVC018CB M00/M01 Q1006 R16/820235 R07/590237 NOSIG RMK QFE745/0993
UNNT 241400Z 20008MPS 2900 -SHSN DRSN SCT010 OVC018CB M00/M01 Q1006 R16/820235 R07/590237 NOSIG RMK QFE744/0993
UNNT 241330Z 20007MPS 4400 -SHSN DRSN OVC012CB M00/M01 Q1006 R16/820235 R07/590237 NOSIG RMK QFE745/0993
UNNT 241300Z 20008MPS 4900 -SHSN DRSN OVC012CB M00/M01 Q1006 R16/820235 R07/590237 NOSIG RMK QFE745/0993
UNNT 241230Z 20008MPS 4000 -SHSN DRSN OVC012CB M00/M01 Q1006 R16/820235 R07/590237 NOSIG RMK QFE745/0993
UNNT 241200Z 20008MPS 7000 -SHSN DRSN OVC013CB M00/M01 Q1006 R16/820235 R07/590237 NOSIG RMK QFE745/0993
UNNT 241130Z 20009MPS 9000 -SHSN DRSN OVC013CB M00/M02 Q1006 R16/820235 R07/590237 NOSIG RMK QFE744/0993
UNNT 241100Z 20009MPS 9999 -SHSN DRSN OVC016CB 00/M02 Q1006 WS R16 R16/590235 R07/590237 NOSIG RMK QFE745/0993
UNNT 241030Z 20009MPS 9999 DRSN OVC015CB 00/M02 Q1006 R16/590235 R07/590237 NOSIG RMK QFE745/0993
UNNT 241000Z 21010MPS 9999 DRSN OVC017CB 00/M02 Q1006 R16/590235 R07/590237 NOSIG RMK QFE744/0993
UNNT 240930Z 20010MPS 9999 DRSN OVC017CB 00/M02 Q1005 R16/590235 R07/590237 NOSIG RMK QFE744/0992
UNNT 240900Z 20010MPS 8000 -SN DRSN OVC014 00/M01 Q1006 R16/590235 R07/590237 NOSIG RMK QFE744/0993
UNNT 240830Z 20008MPS 4600 -SN DRSN OVC011 M00/M01 Q1006 R16/590235 R07/390140 NOSIG RMK QFE744/0993
UNNT 240800Z 20008MPS 6000 -SN DRSN OVC015 00/M02 Q1006 R16/390136 R07/390140 NOSIG RMK QFE744/0993
UNNT 240730Z 20009MPS 9999 -SN DRSN OVC015 00/M02 Q1006 R16/390136 R07/390140 NOSIG RMK QFE744/0993